Welcome!

Visit our other weather sites:

Template documentation
and downloads

And another site



There are no active watches, warnings or advisories

Nearby METAR Reports

   
KAVP - Albrightsville, PA
Updated: Sep 27 2020 6:54 am
Overcast  
Overcast  
   Wind: Calm
Wind: Calm
Temperature: 66.2°F
Dew Point: 64.4°F
Humidity: 94%
Barometer: 30 inHg
Clouds: Overcast
Visibility: 10 mi
Cloud details: Partly Cloudy 762 m,
Overcast 1280 m
KAVP 271154Z 00000KT 10SM SCT025 OVC042 19/18 A3000 RMK AO2 RAB16E26 SLP153 P0000 60000 70003 T01940178 10200 20189 51007
KIWA - Apache Junction, AZ
Updated: Sep 27 2020 6:47 am
Clear  
Clear  
   Wind: ESE 8.1 mph
Wind: ESE 8.1 mph
Temperature: 71.6°F
Dew Point: 39.2°F
Humidity: 31%
Barometer: 29.89 inHg
Clouds: Clear
Visibility: 10 mi
Cloud details: Clear
KIWA 271147Z 11007KT 10SM SKC 22/04 A2989
KPKB - Blue Rock, OH
Updated: Sep 27 2020 6:53 am
Mostly Cloudy  
Mostly Cloudy  
   Wind: SE 3.5 mph
Wind: SE 3.5 mph
Temperature: 60.8°F
Dew Point: 57.2°F
Humidity: 88%
Barometer: 29.97 inHg
Clouds: Mostly Cloudy
Visibility: 10 mi
Cloud details: Mostly Cloudy 1402 m
KPKB 271153Z 14003KT 10SM BKN046 16/14 A2997 RMK AO2 SLP145 T01560144 10156 20133 52008
KHVN - Branford, CT
Updated: Sep 27 2020 6:53 am
Mist, Overcast  
Mist, Overcast  
   Wind: East 3.5 mph
Wind: East 3.5 mph
Temperature: 69.8°F
Dew Point: 68°F
Humidity: 94%
Barometer: 30.02 inHg
Clouds: Overcast
Visibility: 1 mi
Cloud details: Overcast 91 m
KHVN 271153Z 08003KT 1 3/4SM BR OVC003 21/20 A3002 RMK AO2 SLP165 T02060200 10211 20194 53004 $
KPHX - Carefree, AZ
Updated: Sep 27 2020 6:51 am
Few Clouds  
Few Clouds  
   Wind: East 5.8 mph
Wind: East 5.8 mph
Temperature: 78.8°F
Dew Point: 41°F
Humidity: 26%
Barometer: 29.84 inHg
Clouds: Few Clouds
Visibility: 10 mi
Cloud details: Few Clouds 5486 m
KPHX 271151Z 09005KT 10SM FEW180 26/05 A2984 RMK AO2 SLP085 T02560050 10322 20256 51003
 

Script developed by  Saratoga-weather.org Adapted for the template by  Weerstation Leuven